Time,TemperatureF,DewpointF,PressureIn,WindDirection,WindDirectionDegrees,WindSpeedMPH,WindSpeedGustMPH,Humidity,HourlyPrecipIn,Conditions,Clouds,dailyrainin,SolarRadiationWatts/m^2,SoftwareType,DateUTC
2013-09-15 00:02:00,67.0,47.0,-100.00,WSW,256,2.0,16.0,49,0.00,,,0.00,65.000000,,2013-09-15 06:02:00,
2013-09-15 00:42:00,59.0,48.0,-100.00,SSW,196,1.0,9.0,66,0.00,,,0.00,78.000000,,2013-09-15 06:42:00,
2013-09-15 00:52:00,59.0,48.0,-100.00,SSW,196,1.0,9.0,66,0.00,,,0.00,78.000000,,2013-09-15 06:52:00,
2013-09-15 01:02:00,59.0,48.0,-100.00,SSW,196,1.0,9.0,66,0.00,,,0.00,78.000000,,2013-09-15 07:02:00,
2013-09-15 01:11:00,59.0,48.0,-100.00,SSW,196,1.0,9.0,66,0.00,,,0.00,78.000000,,2013-09-15 07:11:00,
2013-09-15 01:42:00,55.0,48.0,-100.00,West,262,1.0,4.0,78,0.00,,,0.00,7.000000,,2013-09-15 07:42:00,
2013-09-15 01:52:00,55.0,48.0,-100.00,West,262,1.0,4.0,78,0.00,,,0.00,7.000000,,2013-09-15 07:52:00,
2013-09-15 02:02:00,55.0,48.0,-100.00,West,262,1.0,4.0,78,0.00,,,0.00,7.000000,,2013-09-15 08:02:00,
2013-09-15 02:11:00,55.0,48.0,-100.00,West,262,1.0,4.0,78,0.00,,,0.00,7.000000,,2013-09-15 08:11:00,
2013-09-15 02:43:00,54.0,48.0,-100.00,ESE,107,2.0,7.0,79,0.00,,,0.00,2.000000,,2013-09-15 08:43:00,
2013-09-15 02:52:00,54.0,48.0,-100.00,ESE,107,2.0,7.0,79,0.00,,,0.00,2.000000,,2013-09-15 08:52:00,
2013-09-15 03:02:00,54.0,48.0,-100.00,ESE,107,2.0,7.0,79,0.00,,,0.00,2.000000,,2013-09-15 09:02:00,
2013-09-15 03:11:00,54.0,48.0,-100.00,ESE,107,2.0,7.0,79,0.00,,,0.00,2.000000,,2013-09-15 09:11:00,
2013-09-15 03:12:00,51.0,46.0,-100.00,WSW,257,3.0,4.0,83,0.00,,,0.00,2.000000,,2013-09-15 09:12:00,
2013-09-15 03:44:00,51.0,46.0,-100.00,WSW,257,3.0,4.0,83,0.00,,,0.00,2.000000,,2013-09-15 09:44:00,
2013-09-15 03:53:00,51.0,46.0,-100.00,WSW,257,3.0,4.0,83,0.00,,,0.00,2.000000,,2013-09-15 09:53:00,
2013-09-15 04:03:00,51.0,46.0,-100.00,WSW,257,3.0,4.0,83,0.00,,,0.00,2.000000,,2013-09-15 10:03:00,
2013-09-15 04:12:00,49.0,46.0,-100.00,ENE,68,1.0,3.0,90,0.00,,,0.00,0.000000,,2013-09-15 10:12:00,
2013-09-15 04:43:00,49.0,46.0,-100.00,ENE,68,1.0,3.0,90,0.00,,,0.00,0.000000,,2013-09-15 10:43:00,
2013-09-15 04:53:00,49.0,46.0,-100.00,ENE,68,1.0,3.0,90,0.00,,,0.00,0.000000,,2013-09-15 10:53:00,
2013-09-15 05:02:00,49.0,46.0,-100.00,ENE,68,1.0,3.0,90,0.00,,,0.00,0.000000,,2013-09-15 11:02:00,
2013-09-15 05:12:00,47.0,45.0,-100.00,NNE,26,1.0,3.0,94,0.00,,,0.00,0.000000,,2013-09-15 11:12:00,
2013-09-15 05:42:00,47.0,45.0,-100.00,NNE,26,1.0,3.0,94,0.00,,,0.00,0.000000,,2013-09-15 11:42:00,
2013-09-15 05:52:00,47.0,45.0,-100.00,NNE,26,1.0,3.0,94,0.00,,,0.00,0.000000,,2013-09-15 11:52:00,
2013-09-15 06:02:00,47.0,45.0,-100.00,NNE,26,1.0,3.0,94,0.00,,,0.00,0.000000,,2013-09-15 12:02:00,
2013-09-15 06:42:00,45.0,44.0,-100.00,WNW,289,2.0,5.0,95,0.00,,,0.00,0.000000,,2013-09-15 12:42:00,
2013-09-15 06:52:00,45.0,44.0,-100.00,WNW,289,2.0,5.0,95,0.00,,,0.00,0.000000,,2013-09-15 12:52:00,
2013-09-15 07:01:00,45.0,44.0,-100.00,WNW,289,2.0,5.0,95,0.00,,,0.00,0.000000,,2013-09-15 13:01:00,
2013-09-15 07:11:00,45.0,44.0,-100.00,WNW,289,2.0,5.0,95,0.00,,,0.00,0.000000,,2013-09-15 13:11:00,
2013-09-15 07:42:00,44.0,43.0,-100.00,SW,227,1.0,3.0,97,0.00,,,-99.99,0.000000,,2013-09-15 13:42:00,
2013-09-15 07:53:00,44.0,43.0,-100.00,SW,227,1.0,3.0,97,0.00,,,-99.99,0.000000,,2013-09-15 13:53:00,
2013-09-15 08:02:00,44.0,43.0,-100.00,SW,227,1.0,3.0,97,0.00,,,-99.99,0.000000,,2013-09-15 14:02:00,
2013-09-15 08:11:00,44.0,43.0,-100.00,SW,227,1.0,3.0,97,0.00,,,-99.99,0.000000,,2013-09-15 14:11:00,
2013-09-15 13:42:00,78.0,49.0,-100.00,SW,225,2.0,6.0,36,0.00,,,0.00,811.000000,,2013-09-15 19:42:00,
2013-09-15 13:52:00,78.0,49.0,-100.00,SW,225,2.0,6.0,36,0.00,,,0.00,811.000000,,2013-09-15 19:52:00,
2013-09-15 14:02:00,78.0,49.0,-100.00,SW,225,2.0,6.0,36,0.00,,,0.00,811.000000,,2013-09-15 20:02:00,
2013-09-15 14:11:00,78.0,49.0,-100.00,SW,225,2.0,6.0,36,0.00,,,0.00,811.000000,,2013-09-15 20:11:00,
2013-09-15 14:42:00,82.0,47.0,-100.00,North,3,3.0,5.0,30,0.00,,,0.00,826.000000,,2013-09-15 20:42:00,
2013-09-15 14:53:00,82.0,47.0,-100.00,North,3,3.0,5.0,30,0.00,,,0.00,826.000000,,2013-09-15 20:53:00,
2013-09-15 15:02:00,82.0,47.0,-100.00,North,3,3.0,5.0,30,0.00,,,0.00,826.000000,,2013-09-15 21:02:00,
2013-09-15 15:11:00,82.0,47.0,-100.00,North,3,3.0,5.0,30,0.00,,,0.00,826.000000,,2013-09-15 21:11:00,
2013-09-15 15:12:00,84.0,50.0,-100.00,SW,219,2.0,5.0,31,0.00,,,0.00,688.000000,,2013-09-15 21:12:00,
2013-09-15 15:44:00,84.0,50.0,-100.00,SW,219,2.0,5.0,31,0.00,,,0.00,688.000000,,2013-09-15 21:44:00,
2013-09-15 15:54:00,84.0,50.0,-100.00,SW,219,2.0,5.0,31,0.00,,,0.00,688.000000,,2013-09-15 21:54:00,
2013-09-15 16:04:00,84.0,50.0,-100.00,SW,219,2.0,5.0,31,0.00,,,0.00,688.000000,,2013-09-15 22:04:00,
2013-09-15 16:12:00,88.0,49.0,-100.00,SW,222,2.0,5.0,26,0.00,,,-99.99,632.000000,,2013-09-15 22:12:00,
2013-09-15 16:44:00,88.0,49.0,-100.00,SW,222,2.0,5.0,26,0.00,,,-99.99,632.000000,,2013-09-15 22:44:00,
2013-09-15 16:53:00,88.0,49.0,-100.00,SW,222,2.0,5.0,26,0.00,,,-99.99,632.000000,,2013-09-15 22:53:00,
2013-09-15 17:02:00,88.0,49.0,-100.00,SW,222,2.0,5.0,26,0.00,,,-99.99,632.000000,,2013-09-15 23:02:00,
2013-09-15 17:42:00,86.0,51.0,-100.00,WSW,245,3.0,5.0,30,0.00,,,0.00,475.000000,,2013-09-15 23:42:00,
2013-09-15 17:53:00,86.0,51.0,-100.00,WSW,245,3.0,5.0,30,0.00,,,0.00,475.000000,,2013-09-15 23:53:00,
2013-09-15 18:01:00,86.0,51.0,-100.00,WSW,245,3.0,5.0,30,0.00,,,0.00,475.000000,,2013-09-16 00:01:00,
2013-09-15 18:11:00,86.0,51.0,-100.00,WSW,245,3.0,5.0,30,0.00,,,0.00,475.000000,,2013-09-16 00:11:00,
2013-09-15 18:12:00,83.0,49.0,-100.00,WSW,239,3.0,7.0,31,0.00,,,-99.99,121.000000,,2013-09-16 00:12:00,
2013-09-15 18:42:00,83.0,49.0,-100.00,WSW,239,3.0,7.0,31,0.00,,,-99.99,121.000000,,2013-09-16 00:42:00,
2013-09-15 18:52:00,83.0,49.0,-100.00,WSW,239,3.0,7.0,31,0.00,,,-99.99,121.000000,,2013-09-16 00:52:00,
2013-09-15 19:02:00,83.0,49.0,-100.00,WSW,239,3.0,7.0,31,0.00,,,-99.99,121.000000,,2013-09-16 01:02:00,
2013-09-15 19:12:00,74.0,57.0,-100.00,ENE,60,1.0,5.0,55,0.00,,,0.00,96.000000,,2013-09-16 01:12:00,
2013-09-15 19:42:00,74.0,57.0,-100.00,ENE,60,1.0,5.0,55,0.00,,,0.00,96.000000,,2013-09-16 01:42:00,
2013-09-15 19:52:00,74.0,57.0,-100.00,ENE,60,1.0,5.0,55,0.00,,,0.00,96.000000,,2013-09-16 01:52:00,
2013-09-15 20:02:00,74.0,57.0,-100.00,ENE,60,1.0,5.0,55,0.00,,,0.00,96.000000,,2013-09-16 02:02:00,
2013-09-15 20:42:00,66.0,56.0,-100.00,West,277,0.0,5.0,69,0.00,,,0.00,12.000000,,2013-09-16 02:42:00,
2013-09-15 20:52:00,66.0,56.0,-100.00,West,277,0.0,5.0,69,0.00,,,0.00,12.000000,,2013-09-16 02:52:00,
2013-09-15 21:02:00,66.0,56.0,-100.00,West,277,0.0,5.0,69,0.00,,,0.00,12.000000,,2013-09-16 03:02:00,
2013-09-15 21:11:00,66.0,56.0,-100.00,West,277,0.0,5.0,69,0.00,,,0.00,12.000000,,2013-09-16 03:11:00,
2013-09-15 21:12:00,61.0,54.0,-100.00,East,86,0.0,3.0,78,0.00,,,0.00,5.000000,,2013-09-16 03:12:00,
2013-09-15 21:45:00,61.0,54.0,-100.00,East,86,0.0,3.0,78,0.00,,,0.00,5.000000,,2013-09-16 03:45:00,
2013-09-15 21:55:00,61.0,54.0,-100.00,East,86,0.0,3.0,78,0.00,,,0.00,5.000000,,2013-09-16 03:55:00,
2013-09-15 22:05:00,61.0,54.0,-100.00,East,86,0.0,3.0,78,0.00,,,0.00,5.000000,,2013-09-16 04:05:00,
2013-09-15 22:12:00,60.0,54.0,-100.00,SE,142,2.0,5.0,82,0.00,,,0.00,5.000000,,2013-09-16 04:12:00,
2013-09-15 22:43:00,60.0,54.0,-100.00,SE,142,2.0,5.0,82,0.00,,,0.00,5.000000,,2013-09-16 04:43:00,
2013-09-15 22:54:00,60.0,54.0,-100.00,SE,142,2.0,5.0,82,0.00,,,0.00,5.000000,,2013-09-16 04:54:00,
2013-09-15 23:03:00,60.0,54.0,-100.00,SE,142,2.0,5.0,82,0.00,,,0.00,5.000000,,2013-09-16 05:03:00,
2013-09-15 23:12:00,59.0,54.0,-100.00,WSW,251,0.0,4.0,82,0.00,,,0.00,8.000000,,2013-09-16 05:12:00,
2013-09-15 23:44:00,59.0,54.0,-100.00,WSW,251,0.0,4.0,82,0.00,,,0.00,8.000000,,2013-09-16 05:44:00,
2013-09-15 23:53:00,59.0,54.0,-100.00,WSW,251,0.0,4.0,82,0.00,,,0.00,8.000000,,2013-09-16 05:53:00,